Time;durP1;ratioP1;P1;durP2;ratioP2;P2;SDS_P1;SDS_P2;PMS_P1;PMS_P2;Temp;Humidity;BMP_temperature;BMP_pressure;BME280_temperature;BME280_humidity;BME280_pressure;Samples;Min_cycle;Max_cycle;Signal;HPM_P1;HPM_P2
2023/09/24 00:00:56;;;;;;;6.20;2.30;;;19.60;99.90;;;;;;4196279;28;20032;-55
2023/09/24 00:02:57;;;;;;;4.18;1.85;;;19.60;99.90;;;;;;4195821;28;20066;-58
2023/09/24 00:04:58;;;;;;;5.85;2.10;;;19.60;99.90;;;;;;4195213;28;20052;-60
2023/09/24 00:06:59;;;;;;;2.70;1.70;;;19.70;99.90;;;;;;4195894;28;20478;-60
2023/09/24 00:09:01;;;;;;;5.95;1.90;;;19.70;99.90;;;;;;4194597;28;20053;-60
2023/09/24 00:11:02;;;;;;;5.13;2.05;;;19.60;99.90;;;;;;4195682;28;20094;-62
2023/09/24 00:13:03;;;;;;;6.82;1.92;;;19.60;99.90;;;;;;4194350;28;20044;-60
2023/09/24 00:15:07;;;;;;;4.10;1.77;;;19.60;99.90;;;;;;4196706;28;20434;-60
2023/09/24 00:17:08;;;;;;;7.35;2.33;;;19.60;99.90;;;;;;4194630;28;20091;-60
2023/09/24 00:19:10;;;;;;;4.95;1.83;;;19.60;99.90;;;;;;4196905;28;20613;-60
2023/09/24 00:21:12;;;;;;;4.57;2.17;;;19.60;99.90;;;;;;4195318;28;20102;-59
2023/09/24 00:23:16;;;;;;;5.93;1.65;;;19.60;99.90;;;;;;4194992;28;20114;-60
2023/09/24 00:25:17;;;;;;;3.80;1.55;;;19.60;99.90;;;;;;4194368;28;20048;-60
2023/09/24 00:27:18;;;;;;;6.03;2.20;;;19.60;99.90;;;;;;4195240;28;20040;-59
2023/09/24 00:29:21;;;;;;;7.85;1.70;;;19.70;99.90;;;;;;4195521;28;20040;-60
2023/09/24 00:31:22;;;;;;;4.80;1.60;;;19.60;99.90;;;;;;4195693;28;20041;-60
2023/09/24 00:33:24;;;;;;;3.65;1.70;;;19.70;99.90;;;;;;4195672;28;20024;-60
2023/09/24 00:35:25;;;;;;;3.85;1.55;;;19.70;99.90;;;;;;4194699;28;20076;-59
2023/09/24 00:37:26;;;;;;;3.47;1.73;;;19.70;99.90;;;;;;4194407;28;20145;-59
2023/09/24 00:39:27;;;;;;;9.35;2.97;;;19.70;99.90;;;;;;4194585;28;20098;-59
2023/09/24 00:41:28;;;;;;;4.57;1.90;;;19.70;99.90;;;;;;4195108;28;20041;-56
2023/09/24 00:43:32;;;;;;;3.95;1.50;;;19.60;99.90;;;;;;4194940;28;20475;-57
2023/09/24 00:45:34;;;;;;;7.10;2.55;;;19.70;99.90;;;;;;4195636;28;20427;-59
2023/09/24 00:47:37;;;;;;;3.67;1.50;;;19.70;99.90;;;;;;4194752;28;20473;-60
2023/09/24 00:49:38;;;;;;;9.80;1.95;;;19.70;99.90;;;;;;4179916;28;20053;-59
2023/09/24 00:51:41;;;;;;;5.75;1.67;;;19.60;99.90;;;;;;4177915;28;20049;-58
2023/09/24 00:53:42;;;;;;;7.80;2.63;;;19.60;99.90;;;;;;4178954;28;20120;-59
2023/09/24 00:55:44;;;;;;;5.95;2.00;;;19.60;99.90;;;;;;4187262;28;20110;-59
2023/09/24 00:57:49;;;;;;;5.03;2.10;;;19.50;99.90;;;;;;4195322;28;20040;-58
2023/09/24 00:59:50;;;;;;;7.55;2.25;;;19.40;99.90;;;;;;4194725;28;20024;-60
2023/09/24 01:01:52;;;;;;;5.03;2.05;;;19.40;99.90;;;;;;4195898;28;20033;-60
2023/09/24 01:03:53;;;;;;;9.02;3.03;;;19.40;99.90;;;;;;4193600;28;20426;-58
2023/09/24 01:05:55;;;;;;;4.80;2.20;;;19.40;99.90;;;;;;4195607;28;20089;-60
2023/09/24 01:07:56;;;;;;;8.55;3.90;;;19.30;99.90;;;;;;4194136;28;20495;-57
2023/09/24 01:09:58;;;;;;;8.13;2.58;;;19.10;99.90;;;;;;4193983;28;20048;-59
2023/09/24 01:12:03;;;;;;;8.82;3.08;;;19.00;99.90;;;;;;4194534;28;20491;-59
2023/09/24 01:14:05;;;;;;;7.63;2.67;;;18.80;99.90;;;;;;4194149;28;20554;-58
2023/09/24 01:16:07;;;;;;;4.72;2.40;;;18.60;99.90;;;;;;4193863;28;20090;-59
2023/09/24 01:18:08;;;;;;;17.05;2.50;;;18.50;99.90;;;;;;4194834;28;20040;-59
2023/09/24 01:20:13;;;;;;;9.82;3.03;;;18.40;99.90;;;;;;4195592;28;20086;-58
2023/09/24 01:22:15;;;;;;;5.05;2.72;;;18.40;99.90;;;;;;4192980;28;20045;-59
2023/09/24 01:24:16;;;;;;;7.00;2.22;;;18.40;99.90;;;;;;4194772;28;20403;-59
2023/09/24 01:26:18;;;;;;;6.03;2.45;;;18.40;99.90;;;;;;4194384;28;20371;-61
2023/09/24 01:28:19;;;;;;;5.28;2.53;;;18.30;99.90;;;;;;4194857;28;20086;-60
2023/09/24 01:30:20;;;;;;;4.72;2.38;;;18.30;99.90;;;;;;4194009;28;20117;-60
2023/09/24 01:32:22;;;;;;;7.03;2.25;;;18.30;99.90;;;;;;4195370;28;20036;-60
2023/09/24 01:34:23;;;;;;;6.03;2.88;;;18.30;99.90;;;;;;4193525;28;20049;-60
2023/09/24 01:36:24;;;;;;;8.93;2.83;;;18.20;99.90;;;;;;4194089;28;20044;-59
2023/09/24 01:38:25;;;;;;;9.98;3.35;;;18.10;99.90;;;;;;4193068;28;20097;-60
2023/09/24 01:40:28;;;;;;;5.90;2.72;;;18.10;99.90;;;;;;4193110;28;20102;-60
2023/09/24 01:42:29;;;;;;;7.32;2.97;;;18.20;99.90;;;;;;4193578;28;20017;-59
2023/09/24 01:44:34;;;;;;;8.35;3.25;;;18.20;99.90;;;;;;4193278;28;20157;-60
2023/09/24 01:46:35;;;;;;;5.80;2.78;;;18.30;99.90;;;;;;4194313;28;20092;-60
2023/09/24 01:48:36;;;;;;;8.65;5.63;;;18.30;99.90;;;;;;4193659;28;20079;-60
2023/09/24 01:50:38;;;;;;;9.00;4.35;;;18.40;99.90;;;;;;4195252;28;20062;-61
2023/09/24 01:52:39;;;;;;;8.77;4.25;;;18.50;99.90;;;;;;4192903;28;20044;-60
2023/09/24 01:54:40;;;;;;;10.90;3.92;;;18.50;99.90;;;;;;4195058;28;20095;-60
2023/09/24 01:56:41;;;;;;;12.45;5.50;;;18.50;99.90;;;;;;4192582;28;20459;-60
2023/09/24 01:58:42;;;;;;;5.07;3.40;;;18.60;99.90;;;;;;4194025;28;20040;-60
2023/09/24 02:00:46;;;;;;;7.00;2.92;;;18.60;99.90;;;;;;4192539;28;20029;-60
2023/09/24 02:02:48;;;;;;;6.13;2.85;;;18.70;99.90;;;;;;4194117;28;20404;-60
2023/09/24 02:04:49;;;;;;;6.70;2.92;;;18.60;99.90;;;;;;4193295;28;20086;-59
2023/09/24 02:06:51;;;;;;;7.80;2.95;;;18.50;99.90;;;;;;4193944;28;20036;-57
2023/09/24 02:08:52;;;;;;;5.10;2.55;;;18.50;99.90;;;;;;4193411;28;20020;-59
2023/09/24 02:10:53;;;;;;;3.97;2.65;;;18.40;99.90;;;;;;4193821;28;20074;-60
2023/09/24 02:12:54;;;;;;;6.40;2.83;;;18.30;99.90;;;;;;4192441;28;20066;-58
2023/09/24 02:14:56;;;;;;;6.95;3.00;;;18.20;99.90;;;;;;4192670;28;20044;-60
2023/09/24 02:16:57;;;;;;;7.43;2.53;;;18.10;99.90;;;;;;4193737;28;20033;-60
2023/09/24 02:18:58;;;;;;;4.93;3.13;;;18.00;99.90;;;;;;4192414;28;20028;-61
2023/09/24 02:20:59;;;;;;;5.35;2.45;;;18.00;99.90;;;;;;4193610;28;20562;-60
2023/09/24 02:23:02;;;;;;;7.53;2.35;;;18.00;99.90;;;;;;4191784;28;20048;-60
2023/09/24 02:25:06;;;;;;;6.90;2.80;;;17.90;99.90;;;;;;4193987;28;20083;-58
2023/09/24 02:27:07;;;;;;;4.95;2.53;;;17.90;99.90;;;;;;4174966;28;20733;-58
2023/09/24 02:29:09;;;;;;;9.75;2.60;;;17.90;99.90;;;;;;4194529;28;20036;-58
2023/09/24 02:31:11;;;;;;;10.15;3.17;;;17.90;99.90;;;;;;4174969;28;20071;-61
2023/09/24 02:33:12;;;;;;;6.95;2.55;;;17.90;99.90;;;;;;4193358;28;20048;-61
2023/09/24 02:35:14;;;;;;;7.85;2.75;;;17.90;99.90;;;;;;4174783;28;20642;-61
2023/09/24 02:37:15;;;;;;;8.88;2.70;;;17.90;99.90;;;;;;4175808;28;20048;-60
2023/09/24 02:39:16;;;;;;;9.02;3.50;;;18.00;99.90;;;;;;4192737;28;20074;-61
2023/09/24 02:41:17;;;;;;;6.22;2.70;;;17.90;99.90;;;;;;4193311;28;20114;-60
2023/09/24 02:43:19;;;;;;;5.93;2.75;;;17.90;99.90;;;;;;4192790;28;20070;-61
2023/09/24 02:45:21;;;;;;;4.53;2.50;;;17.80;99.90;;;;;;4193481;28;20831;-60
2023/09/24 02:47:22;;;;;;;6.80;2.58;;;17.80;99.90;;;;;;4193063;28;20032;-60
2023/09/24 02:49:23;;;;;;;9.48;2.75;;;17.70;99.90;;;;;;4192866;28;20128;-61
2023/09/24 02:51:24;;;;;;;7.55;2.83;;;17.70;99.90;;;;;;4192292;28;20037;-59
2023/09/24 02:53:25;;;;;;;6.93;2.75;;;17.60;99.90;;;;;;4192138;28;20040;-61
2023/09/24 02:55:28;;;;;;;6.80;3.17;;;17.60;99.90;;;;;;4192863;28;20443;-58
2023/09/24 02:57:29;;;;;;;8.07;2.88;;;17.50;99.90;;;;;;4176741;28;20041;-60
2023/09/24 02:59:32;;;;;;;8.75;2.90;;;17.50;99.90;;;;;;4188704;28;20462;-59
2023/09/24 03:01:33;;;;;;;5.80;3.45;;;17.50;99.90;;;;;;4193138;28;20028;-60
2023/09/24 03:03:34;;;;;;;5.13;2.95;;;17.40;99.90;;;;;;4194258;28;20082;-61
2023/09/24 03:05:36;;;;;;;7.25;3.95;;;17.40;99.90;;;;;;4190308;28;20040;-60
2023/09/24 03:07:40;;;;;;;8.18;3.20;;;17.40;99.90;;;;;;4178490;28;20033;-60
2023/09/24 03:09:42;;;;;;;8.38;3.78;;;17.40;99.90;;;;;;4175703;28;20500;-59
2023/09/24 03:11:43;;;;;;;5.43;3.17;;;17.30;99.90;;;;;;4180164;28;20040;-59
2023/09/24 03:13:44;;;;;;;7.75;3.35;;;17.30;99.90;;;;;;4191876;28;20109;-60
2023/09/24 03:15:45;;;;;;;8.25;3.35;;;17.20;99.90;;;;;;4174710;28;20041;-60
2023/09/24 03:17:46;;;;;;;12.25;3.47;;;17.20;99.90;;;;;;4191996;28;20040;-61
2023/09/24 03:19:48;;;;;;;7.28;3.55;;;17.20;99.90;;;;;;4192956;28;20032;-60
2023/09/24 03:21:49;;;;;;;7.55;2.88;;;17.20;99.90;;;;;;4192050;28;20036;-60
2023/09/24 03:23:50;;;;;;;4.78;3.15;;;17.20;99.90;;;;;;4191171;28;20134;-56
2023/09/24 03:25:51;;;;;;;8.40;3.28;;;17.20;99.90;;;;;;4192417;28;20093;-60
2023/09/24 03:27:55;;;;;;;7.82;3.53;;;17.30;99.90;;;;;;4191500;28;20326;-60
2023/09/24 03:29:56;;;;;;;10.25;3.75;;;17.20;99.90;;;;;;4192946;28;20106;-60
2023/09/24 03:31:58;;;;;;;10.57;4.60;;;17.20;99.90;;;;;;4191582;28;20484;-60
2023/09/24 03:33:59;;;;;;;7.30;3.60;;;17.20;99.90;;;;;;4175579;28;20460;-61
2023/09/24 03:36:02;;;;;;;6.43;3.47;;;17.30;99.90;;;;;;4190934;28;20032;-59
2023/09/24 03:38:03;;;;;;;5.80;2.65;;;17.30;99.90;;;;;;4193489;28;20089;-60
2023/09/24 03:40:06;;;;;;;8.27;3.88;;;17.40;99.90;;;;;;4191431;28;20040;-60
2023/09/24 03:42:07;;;;;;;7.78;3.15;;;17.40;99.90;;;;;;4192772;28;20492;-60
2023/09/24 03:44:08;;;;;;;3.53;2.83;;;17.40;99.90;;;;;;4191004;28;20447;-59
2023/09/24 03:46:09;;;;;;;7.82;3.30;;;17.50;99.90;;;;;;4193410;28;20488;-59
2023/09/24 03:48:10;;;;;;;9.07;2.80;;;17.50;99.90;;;;;;4191493;28;20041;-59
2023/09/24 03:50:14;;;;;;;6.80;2.50;;;17.60;99.90;;;;;;4193284;28;20044;-60
2023/09/24 03:52:15;;;;;;;10.07;2.78;;;17.60;99.90;;;;;;4192060;28;20102;-59
2023/09/24 03:54:16;;;;;;;5.97;2.88;;;17.70;99.90;;;;;;4191435;28;20036;-60
2023/09/24 03:56:17;;;;;;;6.50;2.72;;;17.70;99.90;;;;;;4192365;28;20029;-60
2023/09/24 03:58:19;;;;;;;7.05;2.80;;;17.80;99.90;;;;;;4192690;28;20033;-60
2023/09/24 04:00:21;;;;;;;6.72;2.90;;;17.80;99.90;;;;;;4192976;28;20045;-59
2023/09/24 04:02:22;;;;;;;7.75;2.97;;;17.80;99.90;;;;;;4191688;28;20087;-59
2023/09/24 04:04:26;;;;;;;6.15;3.20;;;17.80;99.90;;;;;;4174854;28;20036;-60
2023/09/24 04:06:27;;;;;;;8.18;4.72;;;17.80;99.90;;;;;;4191051;28;20029;-59
2023/09/24 04:08:29;;;;;;;6.68;3.90;;;17.70;99.90;;;;;;4191924;28;20040;-59
2023/09/24 04:10:30;;;;;;;10.20;4.90;;;17.60;99.90;;;;;;4190995;28;20385;-59
2023/09/24 04:12:34;;;;;;;10.00;3.70;;;17.60;99.90;;;;;;4192334;28;20313;-59
2023/09/24 04:14:36;;;;;;;5.90;3.22;;;17.60;99.90;;;;;;4191885;28;20032;-60
2023/09/24 04:16:38;;;;;;;6.72;2.78;;;17.60;99.90;;;;;;4192481;28;20439;-59
2023/09/24 04:18:41;;;;;;;13.15;4.68;;;17.60;99.90;;;;;;4192286;28;20024;-59
2023/09/24 04:20:43;;;;;;;11.88;4.45;;;17.60;99.90;;;;;;4193671;28;20066;-58
2023/09/24 04:22:44;;;;;;;13.75;4.70;;;17.60;99.90;;;;;;4191879;28;20050;-59
2023/09/24 04:24:46;;;;;;;7.07;3.90;;;17.60;99.90;;;;;;4157996;28;20046;-60
2023/09/24 04:26:47;;;;;;;8.82;3.92;;;17.60;99.90;;;;;;4192214;28;20434;-60
2023/09/24 04:28:50;;;;;;;6.70;3.38;;;17.60;99.90;;;;;;4191500;28;20098;-59
2023/09/24 04:30:52;;;;;;;7.13;3.88;;;17.60;99.90;;;;;;4191699;28;20053;-59
2023/09/24 04:32:54;;;;;;;10.07;3.83;;;17.60;99.90;;;;;;4191131;28;20089;-60
2023/09/24 04:34:55;;;;;;;9.07;3.70;;;17.50;99.90;;;;;;4192917;28;20518;-60
2023/09/24 04:36:56;;;;;;;12.02;3.80;;;17.60;99.90;;;;;;4191826;28;20498;-59
2023/09/24 04:38:57;;;;;;;12.45;3.25;;;17.50;99.90;;;;;;4193352;28;20037;-60
2023/09/24 04:40:58;;;;;;;8.20;3.75;;;17.60;99.90;;;;;;4193374;28;20433;-59
2023/09/24 04:42:59;;;;;;;8.57;3.75;;;17.60;99.90;;;;;;4194950;28;20036;-60
2023/09/24 04:45:01;;;;;;;8.35;2.75;;;17.60;99.90;;;;;;4192639;28;20102;-60
2023/09/24 04:47:04;;;;;;;6.30;2.50;;;17.60;99.90;;;;;;4196082;28;20330;-60
2023/09/24 04:49:05;;;;;;;8.50;3.15;;;17.60;99.90;;;;;;4193654;28;20040;-60
2023/09/24 04:51:06;;;;;;;9.93;3.45;;;17.60;99.90;;;;;;4196395;28;20036;-60
2023/09/24 04:53:07;;;;;;;4.88;3.25;;;17.60;99.90;;;;;;4193447;28;20434;-60
2023/09/24 04:55:09;;;;;;;6.63;2.88;;;17.60;99.90;;;;;;4195058;28;20036;-58
2023/09/24 04:57:10;;;;;;;6.85;3.33;;;17.70;99.90;;;;;;4194304;28;20089;-60
2023/09/24 04:59:12;;;;;;;7.53;4.03;;;17.80;99.90;;;;;;4193732;28;20098;-60
2023/09/24 05:01:13;;;;;;;7.18;2.92;;;17.90;99.90;;;;;;4195064;28;20542;-59
2023/09/24 05:03:14;;;;;;;5.82;3.10;;;18.10;99.90;;;;;;4194787;28;20553;-61
2023/09/24 05:05:16;;;;;;;8.90;3.05;;;18.20;99.90;;;;;;4194499;28;20434;-60
2023/09/24 05:07:17;;;;;;;6.78;3.25;;;18.40;99.90;;;;;;4193107;28;20114;-55
2023/09/24 05:09:18;;;;;;;11.13;3.25;;;18.60;99.90;;;;;;4195544;28;20057;-59
2023/09/24 05:11:19;;;;;;;8.88;3.40;;;18.90;99.90;;;;;;4193576;28;20541;-59
2023/09/24 05:13:21;;;;;;;7.40;4.10;;;19.20;99.90;;;;;;4195758;28;20029;-58
2023/09/24 05:15:22;;;;;;;9.10;4.07;;;19.50;99.90;;;;;;4194129;28;20388;-60
2023/09/24 05:17:23;;;;;;;6.53;3.45;;;19.80;99.90;;;;;;4194172;28;20041;-59
2023/09/24 05:19:24;;;;;;;10.30;3.28;;;20.00;99.90;;;;;;4194363;28;20459;-60
2023/09/24 05:21:27;;;;;;;8.07;3.53;;;20.30;99.90;;;;;;4194927;28;20040;-60
2023/09/24 05:23:28;;;;;;;8.35;2.80;;;20.50;99.90;;;;;;4193799;28;20074;-59
2023/09/24 05:25:34;;;;;;;10.07;2.78;;;20.70;99.90;;;;;;4193934;28;20056;-60
2023/09/24 05:27:35;;;;;;;10.02;2.97;;;20.90;99.90;;;;;;4193108;28;20465;-59
2023/09/24 05:29:36;;;;;;;4.25;3.00;;;21.20;99.90;;;;;;4193422;28;20044;-60
2023/09/24 05:31:38;;;;;;;11.55;4.70;;;21.40;99.90;;;;;;4193253;28;20431;-57
2023/09/24 05:33:39;;;;;;;10.52;5.32;;;21.50;99.90;;;;;;4193759;28;20455;-59
2023/09/24 05:35:40;;;;;;;11.43;4.50;;;21.30;99.90;;;;;;4194401;28;20044;-58
2023/09/24 05:37:42;;;;;;;6.43;3.63;;;21.00;99.90;;;;;;4191355;28;20040;-59
2023/09/24 05:39:43;;;;;;;23.98;14.30;;;20.70;99.90;;;;;;4193780;28;20040;-58
2023/09/24 05:41:44;;;;;;;17.63;10.05;;;20.40;99.90;;;;;;4192110;28;20095;-59
2023/09/24 05:43:47;;;;;;;10.63;6.57;;;20.40;99.90;;;;;;4203625;28;20020;-58
2023/09/24 05:45:49;;;;;;;18.25;6.03;;;20.40;99.90;;;;;;4208193;28;20032;-60
2023/09/24 05:47:51;;;;;;;12.93;5.00;;;20.50;99.90;;;;;;4202301;28;20028;-59
2023/09/24 05:49:53;;;;;;;6.97;4.47;;;20.70;99.90;;;;;;4192895;28;20124;-59
2023/09/24 05:51:54;;;;;;;13.55;4.38;;;20.70;99.90;;;;;;4194157;28;20425;-59
2023/09/24 05:53:55;;;;;;;9.52;3.80;;;20.70;99.90;;;;;;4193442;28;20037;-60
2023/09/24 05:55:56;;;;;;;7.72;4.20;;;20.80;99.90;;;;;;4194516;28;20102;-60
2023/09/24 05:57:58;;;;;;;10.25;3.97;;;21.10;99.90;;;;;;4192466;28;20116;-59
2023/09/24 05:59:59;;;;;;;4.25;2.88;;;21.40;99.90;;;;;;4194572;28;20082;-62
2023/09/24 06:02:00;;;;;;;8.02;3.38;;;21.60;99.90;;;;;;4192962;28;20121;-60
2023/09/24 06:04:01;;;;;;;5.65;3.33;;;21.80;99.90;;;;;;4192610;28;20425;-60
2023/09/24 06:06:06;;;;;;;8.25;3.13;;;22.40;99.90;;;;;;4193779;28;20033;-60
2023/09/24 06:08:08;;;;;;;7.60;2.67;;;22.90;99.90;;;;;;4193413;28;20416;-61
2023/09/24 06:10:09;;;;;;;7.32;3.03;;;23.30;99.90;;;;;;4192975;28;20040;-62
2023/09/24 06:12:11;;;;;;;6.22;2.65;;;23.60;99.90;;;;;;4192375;28;20045;-60
2023/09/24 06:14:12;;;;;;;10.98;2.63;;;23.70;99.90;;;;;;4175014;28;20033;-60
2023/09/24 06:16:13;;;;;;;6.57;2.70;;;23.60;99.90;;;;;;4195477;28;20519;-60
2023/09/24 06:18:14;;;;;;;5.68;2.58;;;23.60;99.90;;;;;;4192949;28;20036;-60
2023/09/24 06:20:16;;;;;;;6.47;2.72;;;23.40;99.90;;;;;;4191298;28;20479;-60
2023/09/24 06:22:17;;;;;;;8.55;3.88;;;23.30;99.90;;;;;;4193997;28;20032;-61
2023/09/24 06:24:20;;;;;;;5.30;2.90;;;23.00;99.90;;;;;;4192227;28;20052;-60
2023/09/24 06:26:21;;;;;;;8.45;3.05;;;22.70;99.90;;;;;;4193476;28;20048;-60
2023/09/24 06:28:24;;;;;;;8.85;3.20;;;22.70;99.90;;;;;;4193305;28;20024;-60
2023/09/24 06:30:25;;;;;;;6.25;2.22;;;22.90;99.90;;;;;;4175586;28;20053;-61
2023/09/24 06:32:29;;;;;;;8.75;2.35;;;22.90;99.90;;;;;;4193017;28;20074;-62
2023/09/24 06:34:31;;;;;;;5.72;2.30;;;22.80;99.90;;;;;;4192945;28;20036;-61
2023/09/24 06:36:32;;;;;;;9.45;3.22;;;22.80;99.90;;;;;;4193474;28;20078;-60
2023/09/24 06:38:33;;;;;;;11.23;2.55;;;22.70;99.90;;;;;;4191678;28;20044;-62
2023/09/24 06:40:38;;;;;;;14.68;3.00;;;22.50;99.90;;;;;;4193650;28;20738;-58
2023/09/24 06:42:40;;;;;;;12.00;2.72;;;22.50;99.90;;;;;;4192322;28;20028;-62
2023/09/24 06:44:41;;;;;;;8.80;2.70;;;22.50;99.90;;;;;;4174816;28;20094;-59
2023/09/24 06:46:42;;;;;;;6.65;3.15;;;22.50;99.90;;;;;;4192266;28;20485;-61
2023/09/24 06:48:43;;;;;;;4.53;2.42;;;22.60;99.90;;;;;;4193230;28;20458;-61
2023/09/24 06:50:44;;;;;;;8.13;2.53;;;22.60;99.90;;;;;;4191807;28;20136;-61
2023/09/24 06:52:45;;;;;;;10.82;2.90;;;22.50;99.90;;;;;;4191823;28;20357;-62
2023/09/24 06:54:46;;;;;;;9.48;3.00;;;22.30;99.90;;;;;;4191460;28;20094;-61
2023/09/24 06:56:47;;;;;;;17.45;10.88;;;22.40;99.90;;;;;;4193222;28;20652;-60
2023/09/24 06:58:48;;;;;;;19.58;14.15;;;22.50;99.90;;;;;;4191324;28;20041;-60
2023/09/24 07:00:50;;;;;;;18.23;13.38;;;22.60;99.90;;;;;;4193127;28;20028;-61
2023/09/24 07:02:51;;;;;;;18.98;13.02;;;22.60;99.90;;;;;;4189704;28;20089;-62
2023/09/24 07:04:53;;;;;;;13.25;10.10;;;22.80;99.90;;;;;;4191417;28;20396;-61
2023/09/24 07:06:54;;;;;;;17.92;10.57;;;23.00;99.90;;;;;;4191451;28;20028;-61
2023/09/24 07:08:56;;;;;;;10.50;6.97;;;23.50;99.90;;;;;;4192749;28;20457;-61
2023/09/24 07:11:27;;;;;;;13.93;5.85;;;23.60;99.90;;;;;;4192470;28;20052;-60
2023/09/24 07:13:29;;;;;;;11.95;5.63;;;23.80;99.90;;;;;;4192440;28;20056;-61
2023/09/24 07:15:30;;;;;;;9.70;5.22;;;24.00;99.90;;;;;;4191335;28;20040;-62
2023/09/24 07:17:31;;;;;;;8.90;4.90;;;24.70;99.90;;;;;;4192332;28;20458;-60
2023/09/24 07:19:32;;;;;;;9.73;5.47;;;24.70;99.90;;;;;;4192332;28;20114;-61
2023/09/24 07:21:34;;;;;;;10.23;5.38;;;24.80;99.90;;;;;;4189280;28;20167;-62
2023/09/24 07:23:35;;;;;;;8.63;4.95;;;24.90;99.90;;;;;;4175446;28;20424;-65
2023/09/24 07:25:39;;;;;;;12.57;6.28;;;24.90;99.90;;;;;;4175583;28;20174;-60
2023/09/24 07:27:41;;;;;;;12.88;7.13;;;24.90;99.90;;;;;;4177092;28;20045;-60
2023/09/24 07:29:44;;;;;;;21.15;8.73;;;24.90;99.90;;;;;;4174846;28;20091;-61
2023/09/24 07:31:45;;;;;;;15.23;8.43;;;24.80;99.90;;;;;;4176034;28;20053;-60
2023/09/24 07:33:46;;;;;;;9.70;3.85;;;24.90;99.90;;;;;;4175879;28;20523;-63
2023/09/24 07:35:48;;;;;;;13.65;4.32;;;24.90;99.90;;;;;;4176751;28;20534;-61
2023/09/24 07:37:49;;;;;;;13.55;3.65;;;24.90;99.90;;;;;;4175747;28;20362;-61
2023/09/24 07:39:50;;;;;;;10.27;4.10;;;24.80;99.90;;;;;;4176124;28;20033;-62
2023/09/24 07:41:51;;;;;;;7.72;3.08;;;24.70;99.90;;;;;;4174918;28;20049;-61
2023/09/24 07:43:53;;;;;;;6.45;3.17;;;24.80;99.90;;;;;;4176059;28;20093;-62
2023/09/24 07:45:54;;;;;;;14.10;3.97;;;24.80;99.90;;;;;;4175641;28;20106;-60
2023/09/24 07:47:55;;;;;;;6.90;3.30;;;24.70;99.90;;;;;;4173614;28;20048;-63
2023/09/24 07:49:56;;;;;;;9.50;3.50;;;24.80;99.90;;;;;;4168186;28;20465;-61
2023/09/24 07:51:57;;;;;;;7.80;2.97;;;24.80;99.90;;;;;;4175911;28;20097;-61
2023/09/24 07:54:00;;;;;;;6.88;3.08;;;24.70;99.90;;;;;;4176727;28;20111;-59
2023/09/24 07:56:06;;;;;;;10.85;3.70;;;24.60;99.90;;;;;;4174772;28;20493;-61
2023/09/24 07:58:07;;;;;;;12.57;2.95;;;24.50;99.90;;;;;;4176221;28;20473;-61
2023/09/24 08:00:09;;;;;;;9.15;3.28;;;24.50;99.90;;;;;;4175570;28;20049;-60
2023/09/24 08:02:10;;;;;;;5.43;2.38;;;24.50;99.90;;;;;;4175430;28;20037;-59
2023/09/24 08:04:12;;;;;;;7.45;3.00;;;24.60;99.90;;;;;;4175459;28;20040;-60
2023/09/24 08:06:13;;;;;;;7.13;2.88;;;24.60;99.90;;;;;;4174749;28;20099;-61
2023/09/24 08:08:15;;;;;;;11.70;3.05;;;24.70;99.90;;;;;;4175146;28;20045;-61
2023/09/24 08:10:16;;;;;;;6.65;3.00;;;24.90;99.90;;;;;;4176000;28;20444;-60
2023/09/24 08:12:18;;;;;;;9.35;2.70;;;24.90;99.90;;;;;;4175690;28;20147;-61
2023/09/24 08:14:19;;;;;;;10.30;3.10;;;24.90;99.90;;;;;;4178507;28;20076;-62
2023/09/24 08:16:20;;;;;;;11.02;3.17;;;24.80;99.90;;;;;;4178369;28;20455;-63
2023/09/24 08:18:22;;;;;;;15.07;3.58;;;24.90;99.90;;;;;;4178576;28;20091;-59
2023/09/24 08:20:23;;;;;;;7.95;2.70;;;25.00;99.90;;;;;;4178579;28;20071;-61
2023/09/24 08:22:24;;;;;;;9.45;2.90;;;25.20;99.90;;;;;;4177531;28;20045;-62
2023/09/24 08:24:26;;;;;;;9.50;2.80;;;25.20;99.90;;;;;;4186669;28;20489;-60
2023/09/24 08:26:27;;;;;;;6.35;2.65;;;25.40;99.90;;;;;;4194417;28;20103;-61
2023/09/24 08:28:28;;;;;;;8.50;2.90;;;25.30;99.90;;;;;;4195055;28;20177;-61
2023/09/24 08:30:31;;;;;;;10.35;3.53;;;25.40;99.90;;;;;;4194539;28;20028;-62
2023/09/24 08:32:32;;;;;;;6.75;2.25;;;25.20;99.90;;;;;;4195310;28;20048;-62
2023/09/24 08:34:33;;;;;;;8.70;2.30;;;25.20;99.90;;;;;;4194039;28;20028;-62
2023/09/24 08:36:34;;;;;;;9.60;2.47;;;25.40;99.90;;;;;;4195986;28;20605;-61
2023/09/24 08:38:36;;;;;;;13.05;2.60;;;25.40;99.90;;;;;;4193331;28;20066;-60
2023/09/24 08:40:39;;;;;;;10.18;3.13;;;25.80;99.90;;;;;;4196046;28;20090;-57
2023/09/24 08:42:43;;;;;;;6.90;2.35;;;26.20;99.90;;;;;;4194088;28;20082;-59
2023/09/24 08:44:50;;;;;;;7.47;2.50;;;26.10;99.90;;;;;;4194563;28;20102;-59
2023/09/24 08:46:52;;;;;;;15.98;4.32;;;26.30;99.90;;;;;;4192783;28;20013;-60
2023/09/24 08:48:54;;;;;;;14.63;3.85;;;26.50;99.90;;;;;;4194835;28;20032;-60
2023/09/24 08:50:56;;;;;;;10.20;2.75;;;26.70;99.90;;;;;;4194438;28;20122;-56
2023/09/24 08:52:58;;;;;;;12.13;2.63;;;26.50;99.90;;;;;;4195202;28;20453;-59
2023/09/24 08:55:00;;;;;;;13.25;3.33;;;26.40;99.90;;;;;;4195331;28;20024;-59
2023/09/24 08:57:01;;;;;;;9.38;2.97;;;26.30;99.90;;;;;;4195185;28;20358;-57
2023/09/24 08:59:03;;;;;;;8.43;2.25;;;26.30;99.90;;;;;;4193324;28;20041;-60
2023/09/24 09:01:08;;;;;;;9.70;4.45;;;26.50;99.90;;;;;;4193861;28;20067;-59
2023/09/24 09:03:10;;;;;;;13.10;2.92;;;26.70;99.90;;;;;;4194897;28;20070;-59
2023/09/24 09:05:22;;;;;;;9.25;2.83;;;27.00;99.90;;;;;;4193054;28;20082;-58
2023/09/24 09:07:24;;;;;;;14.73;2.97;;;27.10;99.90;;;;;;4194734;28;20123;-60
2023/09/24 09:09:27;;;;;;;15.80;2.70;;;27.30;99.90;;;;;;4193801;28;20040;-59
2023/09/24 09:11:42;;;;;;;13.50;2.97;;;27.20;99.90;;;;;;4194370;28;20048;-61
2023/09/24 09:13:44;;;;;;;12.32;2.92;;;27.20;99.90;;;;;;4193386;28;20063;-60
2023/09/24 09:15:46;;;;;;;10.30;3.53;;;27.30;99.90;;;;;;4194076;28;20327;-62
2023/09/24 09:17:48;;;;;;;17.35;3.22;;;27.40;99.90;;;;;;4193070;28;20052;-60
2023/09/24 09:19:55;;;;;;;12.48;2.90;;;27.40;99.90;;;;;;4193871;28;20086;-63
2023/09/24 09:22:06;;;;;;;13.20;4.07;;;27.40;99.90;;;;;;4192350;28;20040;-59
2023/09/24 09:24:21;;;;;;;13.38;2.78;;;27.40;99.90;;;;;;4193223;28;20481;-58
2023/09/24 09:26:32;;;;;;;9.68;3.03;;;27.50;99.90;;;;;;4191676;28;20075;-61
2023/09/24 09:28:34;;;;;;;11.63;3.78;;;27.60;99.90;;;;;;4194195;28;20093;-62
2023/09/24 09:30:35;;;;;;;10.93;2.58;;;27.60;99.90;;;;;;4193182;28;20484;-62
2023/09/24 09:32:37;;;;;;;15.93;4.25;;;27.50;99.90;;;;;;4195460;28;20020;-62
2023/09/24 09:34:51;;;;;;;15.48;3.28;;;27.40;99.90;;;;;;4192922;28;20443;-62
2023/09/24 09:36:53;;;;;;;12.98;3.35;;;27.40;99.90;;;;;;4193630;28;20029;-61
2023/09/24 09:38:55;;;;;;;12.05;3.50;;;27.40;99.90;;;;;;4192629;28;20102;-62
2023/09/24 09:40:58;;;;;;;12.18;3.58;;;27.40;99.90;;;;;;4194387;28;20477;-61
2023/09/24 09:43:01;;;;;;;10.93;2.97;;;27.40;99.90;;;;;;4193148;28;20374;-62
2023/09/24 09:45:09;;;;;;;10.63;3.38;;;27.20;99.90;;;;;;4194016;28;20082;-62
2023/09/24 09:47:13;;;;;;;13.27;3.30;;;27.10;99.90;;;;;;4192982;28;20044;-61
2023/09/24 09:49:20;;;;;;;9.45;3.20;;;27.00;99.90;;;;;;4193524;28;20106;-61
2023/09/24 09:51:22;;;;;;;12.73;3.35;;;27.10;99.90;;;;;;4192812;28;20048;-62
2023/09/24 09:53:28;;;;;;;11.27;3.00;;;27.20;99.90;;;;;;4193907;28;20074;-61
2023/09/24 09:55:30;;;;;;;9.75;2.88;;;27.10;99.90;;;;;;4193485;28;20939;-61
2023/09/24 09:57:32;;;;;;;17.65;3.67;;;27.10;99.90;;;;;;4192788;28;20033;-61
2023/09/24 09:59:35;;;;;;;15.23;3.72;;;27.20;99.90;;;;;;4193584;28;20040;-62
2023/09/24 10:01:36;;;;;;;11.82;2.97;;;27.30;99.90;;;;;;4193428;28;20036;-62
2023/09/24 10:03:41;;;;;;;12.07;3.35;;;27.40;99.90;;;;;;4194374;28;20082;-60
2023/09/24 10:05:43;;;;;;;14.70;3.22;;;27.50;99.90;;;;;;4193267;28;20028;-61
2023/09/24 10:07:44;;;;;;;19.60;4.35;;;27.40;99.90;;;;;;4194371;28;20098;-61
2023/09/24 10:09:46;;;;;;;12.80;3.30;;;27.20;99.90;;;;;;4192135;28;20380;-62
2023/09/24 10:11:51;;;;;;;8.52;3.03;;;27.30;99.90;;;;;;4193720;28;20103;-59
2023/09/24 10:13:53;;;;;;;15.70;2.70;;;27.20;99.90;;;;;;4192050;28;20032;-62
2023/09/24 10:15:55;;;;;;;14.20;3.67;;;27.00;99.90;;;;;;4193098;28;20032;-62
2023/09/24 10:18:11;;;;;;;14.18;3.83;;;26.70;99.90;;;;;;4192140;28;20037;-61
2023/09/24 10:20:13;;;;;;;10.85;3.50;;;26.70;99.90;;;;;;4194154;28;20024;-62
2023/09/24 10:22:25;;;;;;;10.30;2.85;;;26.50;99.90;;;;;;4192093;28;20174;-60
2023/09/24 10:24:28;;;;;;;10.75;3.13;;;26.50;99.90;;;;;;4193034;28;20102;-58
2023/09/24 10:26:46;;;;;;;11.98;3.55;;;26.30;99.90;;;;;;4192917;28;20070;-59
2023/09/24 10:28:51;;;;;;;11.68;3.13;;;26.30;99.90;;;;;;4193019;28;20056;-62
2023/09/24 10:31:03;;;;;;;10.50;3.45;;;26.20;99.90;;;;;;4192693;28;20033;-61
2023/09/24 10:33:04;;;;;;;14.93;3.30;;;26.10;99.90;;;;;;4193482;28;20073;-61